Hozan Maru — JJ4010 — position and weather

sailwx.info

Track history (hours):
 
Tides and Currents Weather Stations Pressure Air Temp Water Temp Dewpoint Dewpoint Depression Visibility Wind Speed Wind Dir Waves Ship Positions

Hozan Maru

Last reported at 2016-Jul-30 08:12 UTC. Time now 2016-Jul-30 20:42 UTC.
Position N 34°40' E 135°27'.

Length 38 m; draft 3.6 m.

Type: Tug. MMSI: 431401501.

Date/timePositionNaut miles runAvg speedWind from/ knotsBaromVisibWave heightAir tempDewpointWater temp
2016-Jul-30 08:12N 34°40' E 135°27'2 3.3
2016-Jul-30 07:33N 34°39' E 135°26'2 2.1
2016-Jul-30 06:33N 34°40' E 135°27'0 0.0
2016-Jul-30 05:33N 34°40' E 135°27'0 0.0
2016-Jul-30 04:33N 34°40' E 135°27'0 0.0
2016-Jul-30 03:33N 34°40' E 135°27'7 6.7
2016-Jul-30 02:30N 34°33' E 135°25'1 0.9
2016-Jul-30 01:33N 34°33' E 135°26'0 0.5
2016-Jul-30 00:33N 34°33' E 135°25'5 5.2
2016-Jul-29 23:33N 34°34' E 135°19'9 9.1
2016-Jul-29 22:33N 34°40' E 135°11'  
2016-Jul-26 06:32N 34°40' E 135°11'10 9.9
2016-Jul-26 05:30N 34°38' E 134°59'9 1.1
2016-Jul-25 21:09N 34°41' E 134°48'7 0.5
2016-Jul-25 07:32N 34°37' E 134°55'1110.9
2016-Jul-25 06:33N 34°37' E 135°08'1212.2
2016-Jul-25 05:33N 34°38' E 135°23'2 2.2
2016-Jul-25 04:33N 34°39' E 135°25'4 4.3
2016-Jul-25 03:33N 34°36' E 135°22'5 5.0
2016-Jul-25 02:30N 34°30' E 135°21'2 2.1
2016-Jul-25 01:34N 34°31' E 135°24'2 1.5
2016-Jul-25 00:33N 34°32' E 135°24'1 0.7
2016-Jul-24 23:33N 34°33' E 135°23'2 1.7
2016-Jul-24 22:28N 34°31' E 135°23'2 2.1
2016-Jul-24 21:33N 34°33' E 135°23'9 8.6
2016-Jul-24 20:33N 34°40' E 135°27'4 0.1
2016-Jul-23 06:33N 34°38' E 135°22'2813.9
2016-Jul-23 04:33N 34°40' E 134°48'5 1.3
2016-Jul-23 00:23N 34°38' E 134°54'1214.2
2016-Jul-22 23:33N 34°37' E 135°08'1313.3
2016-Jul-22 22:33N 34°39' E 135°24'3 0.1
2016-Jul-21 15:29N 34°40' E 135°27'8 8.7
2016-Jul-21 14:33N 34°39' E 135°18'0 0.0
2016-Jul-21 13:33N 34°39' E 135°18'0 0.0
2016-Jul-21 12:33N 34°39' E 135°18'0 0.2
2016-Jul-21 11:33N 34°39' E 135°17'0 0.0
2016-Jul-21 10:33N 34°39' E 135°17'0 0.2
2016-Jul-21 09:33N 34°39' E 135°18'1 0.6
2016-Jul-21 08:33N 34°39' E 135°18'5 5.3
2016-Jul-21 07:33N 34°39' E 135°25'  
Track history (hours):
 
Tides and Currents Weather Stations Pressure Air Temp Water Temp Dewpoint Dewpoint Depression Visibility Wind Speed Wind Dir Waves Ship Positions

Hozan Maru

Last reported at 2016-Jul-30 08:12 UTC. Time now 2016-Jul-30 20:42 UTC.
Position N 34°40' E 135°27'.

Length 38 m; draft 3.6 m.

Type: Tug. MMSI: 431401501.

Date/timePositionNaut miles runAvg speedWind from/ knotsBaromVisibWave heightAir tempDewpointWater temp
2016-Jul-30 08:12N 34°40' E 135°27'2 3.3
2016-Jul-30 07:33N 34°39' E 135°26'2 2.1
2016-Jul-30 06:33N 34°40' E 135°27'0 0.0
2016-Jul-30 05:33N 34°40' E 135°27'0 0.0
2016-Jul-30 04:33N 34°40' E 135°27'0 0.0
2016-Jul-30 03:33N 34°40' E 135°27'7 6.7
2016-Jul-30 02:30N 34°33' E 135°25'1 0.9
2016-Jul-30 01:33N 34°33' E 135°26'0 0.5
2016-Jul-30 00:33N 34°33' E 135°25'5 5.2
2016-Jul-29 23:33N 34°34' E 135°19'9 9.1
2016-Jul-29 22:33N 34°40' E 135°11'  
2016-Jul-26 06:32N 34°40' E 135°11'10 9.9
2016-Jul-26 05:30N 34°38' E 134°59'9 1.1
2016-Jul-25 21:09N 34°41' E 134°48'7 0.5
2016-Jul-25 07:32N 34°37' E 134°55'1110.9
2016-Jul-25 06:33N 34°37' E 135°08'1212.2
2016-Jul-25 05:33N 34°38' E 135°23'2 2.2
2016-Jul-25 04:33N 34°39' E 135°25'4 4.3
2016-Jul-25 03:33N 34°36' E 135°22'5 5.0
2016-Jul-25 02:30N 34°30' E 135°21'2 2.1
2016-Jul-25 01:34N 34°31' E 135°24'2 1.5
2016-Jul-25 00:33N 34°32' E 135°24'1 0.7
2016-Jul-24 23:33N 34°33' E 135°23'2 1.7
2016-Jul-24 22:28N 34°31' E 135°23'2 2.1
2016-Jul-24 21:33N 34°33' E 135°23'9 8.6
2016-Jul-24 20:33N 34°40' E 135°27'4 0.1
2016-Jul-23 06:33N 34°38' E 135°22'2813.9
2016-Jul-23 04:33N 34°40' E 134°48'5 1.3
2016-Jul-23 00:23N 34°38' E 134°54'1214.2
2016-Jul-22 23:33N 34°37' E 135°08'1313.3
2016-Jul-22 22:33N 34°39' E 135°24'3 0.1
2016-Jul-21 15:29N 34°40' E 135°27'8 8.7
2016-Jul-21 14:33N 34°39' E 135°18'0 0.0
2016-Jul-21 13:33N 34°39' E 135°18'0 0.0
2016-Jul-21 12:33N 34°39' E 135°18'0 0.2
2016-Jul-21 11:33N 34°39' E 135°17'0 0.0
2016-Jul-21 10:33N 34°39' E 135°17'0 0.2
2016-Jul-21 09:33N 34°39' E 135°18'1 0.6
2016-Jul-21 08:33N 34°39' E 135°18'5 5.3
2016-Jul-21 07:33N 34°39' E 135°25'  

Dump ship's entire track history